Etusivu
METAR-TAF:

METAR-TAF

Lentoasemat :

Riverton Regional Airport

Riverton, Wyoming, Yhdysvallat

Leveyspiiri: 43-03-43N, Pituuspiiri: 108-26-47W, korkeus merenpinnasta: 1684 m

Tämänhetkinen sää

Tämä raportti tehtiin 32 minuuttia sitten, kello 20.53 UTC
tyyntä
Lämpötila -6°C
Kosteus 86%
Ilmanpaine 1022 hPa
Näkyvyys: 12.9 km
selkeää

METAR: KRIW 202053Z AUTO 00000KT 8SM CLR M06/M08 A3019 RMK AO2 SLP282 T10561078 56017

Aika: 14:25 (21:25 UTC)

Sääennuste

Tämä raportti tehtiin 3 tuntia ja 57 minuuttia sitten, kello 17.28 UTC
Ennuste voimassa 20. päivästä klo 18 UTC - 21. päivään klo 18 UTC
Tuuli 4 kn eri suunnista
Näkyvyys: 10 km
selkeää

TAF: KRIW 201728Z 2018/2118 VRB04KT P6SM SKC

Säähavainnot ja -ennusteet yli 4000 lentoasemalta (METAR- ja TAF-raportit).

Käytössä olevat sääasemat on merkitty karttaan keltaisilla ja punaisilla pisteillä.

Aseta hiiri pisteen päälle nähdäksesi sääaseman nimen.

Klikkaa sitten nähdäksesi säähavainnot ja -ennusteet.

Kartan vaihtaminen: klikkaa mustalla rastilla varustettuja vihreitä pisteitä, niin voit zoomata sisään; viivalla varustettua vihreää pistettä, niin voit zoomata ulos tai vihreitä nuolia, niin pääset viereisille kartoille.


METAR-TAF: